sensor_id;sensor_type;location;lat;lon;timestamp;pressure;altitude;pressure_sealevel;temperature;humidity
9521;BME280;4798;41.574;23.734;2023-04-20T00:02:02;94987.84;;;10.35;100.00
9521;BME280;4798;41.574;23.734;2023-04-20T00:04:32;94978.56;;;10.37;100.00
9521;BME280;4798;41.574;23.734;2023-04-20T00:07:00;94990.75;;;9.74;100.00
9521;BME280;4798;41.574;23.734;2023-04-20T00:09:29;94984.69;;;9.79;100.00
9521;BME280;4798;41.574;23.734;2023-04-20T00:11:57;94980.06;;;9.94;100.00
9521;BME280;4798;41.574;23.734;2023-04-20T00:14:26;94982.59;;;10.25;100.00
9521;BME280;4798;41.574;23.734;2023-04-20T00:16:54;94989.00;;;10.86;100.00
9521;BME280;4798;41.574;23.734;2023-04-20T00:19:23;94974.81;;;10.38;100.00
9521;BME280;4798;41.574;23.734;2023-04-20T00:21:55;94967.31;;;10.06;100.00
9521;BME280;4798;41.574;23.734;2023-04-20T00:24:23;94977.06;;;10.21;100.00
9521;BME280;4798;41.574;23.734;2023-04-20T00:26:52;94967.56;;;10.15;100.00
9521;BME280;4798;41.574;23.734;2023-04-20T00:29:20;94959.34;;;10.11;100.00
9521;BME280;4798;41.574;23.734;2023-04-20T00:31:49;94965.63;;;10.26;100.00
9521;BME280;4798;41.574;23.734;2023-04-20T00:34:17;94961.31;;;10.40;100.00
9521;BME280;4798;41.574;23.734;2023-04-20T00:36:45;94882.91;;;10.00;100.00
9521;BME280;4798;41.574;23.734;2023-04-20T00:39:15;94954.09;;;10.79;100.00
9521;BME280;4798;41.574;23.734;2023-04-20T00:41:43;94946.75;;;11.00;100.00
9521;BME280;4798;41.574;23.734;2023-04-20T00:44:12;94951.47;;;10.40;100.00
9521;BME280;4798;41.574;23.734;2023-04-20T00:46:40;94952.81;;;10.38;100.00
9521;BME280;4798;41.574;23.734;2023-04-20T00:49:08;94951.09;;;10.57;100.00
9521;BME280;4798;41.574;23.734;2023-04-20T00:51:37;94952.06;;;10.66;100.00
9521;BME280;4798;41.574;23.734;2023-04-20T00:54:05;94934.78;;;10.73;100.00
9521;BME280;4798;41.574;23.734;2023-04-20T00:56:37;94933.06;;;10.59;100.00
9521;BME280;4798;41.574;23.734;2023-04-20T00:59:05;94937.72;;;10.38;100.00
9521;BME280;4798;41.574;23.734;2023-04-20T01:01:34;94946.72;;;10.42;100.00
9521;BME280;4798;41.574;23.734;2023-04-20T01:04:03;94942.84;;;10.25;100.00
9521;BME280;4798;41.574;23.734;2023-04-20T01:06:34;94923.94;;;10.41;100.00
9521;BME280;4798;41.574;23.734;2023-04-20T01:09:02;94882.44;;;10.32;100.00
9521;BME280;4798;41.574;23.734;2023-04-20T01:11:30;94942.69;;;10.50;100.00
9521;BME280;4798;41.574;23.734;2023-04-20T01:14:00;94937.31;;;10.60;100.00
9521;BME280;4798;41.574;23.734;2023-04-20T01:16:29;94934.13;;;10.87;100.00
9521;BME280;4798;41.574;23.734;2023-04-20T01:18:57;94927.44;;;10.94;100.00
9521;BME280;4798;41.574;23.734;2023-04-20T01:21:26;94925.59;;;10.95;100.00
9521;BME280;4798;41.574;23.734;2023-04-20T01:23:55;94922.78;;;10.81;100.00
9521;BME280;4798;41.574;23.734;2023-04-20T01:26:24;94935.06;;;11.01;100.00
9521;BME280;4798;41.574;23.734;2023-04-20T01:28:52;94931.63;;;11.00;100.00
9521;BME280;4798;41.574;23.734;2023-04-20T01:31:21;94937.09;;;10.85;100.00
9521;BME280;4798;41.574;23.734;2023-04-20T01:33:49;94937.56;;;10.58;100.00
9521;BME280;4798;41.574;23.734;2023-04-20T01:36:18;94930.31;;;10.69;100.00
9521;BME280;4798;41.574;23.734;2023-04-20T01:38:46;94930.53;;;10.77;100.00
9521;BME280;4798;41.574;23.734;2023-04-20T01:41:16;94935.75;;;10.54;100.00
9521;BME280;4798;41.574;23.734;2023-04-20T01:43:44;94932.50;;;10.28;100.00
9521;BME280;4798;41.574;23.734;2023-04-20T01:46:12;94927.47;;;10.32;100.00
9521;BME280;4798;41.574;23.734;2023-04-20T01:48:41;94922.00;;;10.52;100.00
9521;BME280;4798;41.574;23.734;2023-04-20T01:51:09;94921.50;;;10.78;100.00
9521;BME280;4798;41.574;23.734;2023-04-20T01:53:37;94918.47;;;10.90;100.00
9521;BME280;4798;41.574;23.734;2023-04-20T01:56:06;94915.78;;;10.95;100.00
9521;BME280;4798;41.574;23.734;2023-04-20T01:58:35;94918.47;;;10.90;100.00
9521;BME280;4798;41.574;23.734;2023-04-20T02:01:04;94912.59;;;10.93;100.00
9521;BME280;4798;41.574;23.734;2023-04-20T02:03:32;94921.53;;;10.06;100.00
9521;BME280;4798;41.574;23.734;2023-04-20T02:06:01;94927.56;;;10.11;100.00
9521;BME280;4798;41.574;23.734;2023-04-20T02:08:29;94928.16;;;10.47;100.00
9521;BME280;4798;41.574;23.734;2023-04-20T02:10:57;94925.06;;;10.64;100.00
9521;BME280;4798;41.574;23.734;2023-04-20T02:13:26;94922.03;;;10.75;100.00
9521;BME280;4798;41.574;23.734;2023-04-20T02:15:55;94917.44;;;10.86;100.00
9521;BME280;4798;41.574;23.734;2023-04-20T02:18:24;94923.28;;;10.83;100.00
9521;BME280;4798;41.574;23.734;2023-04-20T02:20:52;94932.00;;;10.60;100.00
9521;BME280;4798;41.574;23.734;2023-04-20T02:23:20;94930.50;;;10.05;100.00
9521;BME280;4798;41.574;23.734;2023-04-20T02:25:49;94937.13;;;10.07;100.00
9521;BME280;4798;41.574;23.734;2023-04-20T02:28:17;94933.34;;;9.75;100.00
9521;BME280;4798;41.574;23.734;2023-04-20T02:30:46;94937.41;;;9.57;100.00
9521;BME280;4798;41.574;23.734;2023-04-20T02:33:15;94928.47;;;9.43;100.00
9521;BME280;4798;41.574;23.734;2023-04-20T02:35:46;94925.22;;;10.05;100.00
9521;BME280;4798;41.574;23.734;2023-04-20T02:38:15;94917.88;;;10.36;100.00
9521;BME280;4798;41.574;23.734;2023-04-20T02:40:43;94931.72;;;10.61;100.00
9521;BME280;4798;41.574;23.734;2023-04-20T02:43:11;94927.97;;;10.67;100.00
9521;BME280;4798;41.574;23.734;2023-04-20T02:45:40;94921.44;;;10.55;100.00
9521;BME280;4798;41.574;23.734;2023-04-20T02:48:08;94931.69;;;10.66;100.00
9521;BME280;4798;41.574;23.734;2023-04-20T02:50:38;94922.94;;;10.66;100.00
9521;BME280;4798;41.574;23.734;2023-04-20T02:53:06;94927.47;;;10.32;100.00
9521;BME280;4798;41.574;23.734;2023-04-20T02:55:34;94934.94;;;10.19;100.00
9521;BME280;4798;41.574;23.734;2023-04-20T02:58:03;94935.03;;;9.99;100.00
9521;BME280;4798;41.574;23.734;2023-04-20T03:00:31;94939.63;;;9.89;100.00
9521;BME280;4798;41.574;23.734;2023-04-20T03:03:00;94933.47;;;9.98;100.00
9521;BME280;4798;41.574;23.734;2023-04-20T03:05:29;94940.88;;;10.01;100.00
9521;BME280;4798;41.574;23.734;2023-04-20T03:07:58;94932.63;;;10.08;100.00
9521;BME280;4798;41.574;23.734;2023-04-20T03:10:27;94942.41;;;10.07;100.00
9521;BME280;4798;41.574;23.734;2023-04-20T03:12:55;94946.41;;;10.05;100.00
9521;BME280;4798;41.574;23.734;2023-04-20T03:15:23;94935.63;;;9.96;100.00
9521;BME280;4798;41.574;23.734;2023-04-20T03:17:52;94938.25;;;9.96;100.00
9521;BME280;4798;41.574;23.734;2023-04-20T03:20:20;94943.28;;;9.98;100.00
9521;BME280;4798;41.574;23.734;2023-04-20T03:22:48;94940.38;;;9.94;100.00
9521;BME280;4798;41.574;23.734;2023-04-20T03:25:18;94942.59;;;9.77;100.00
9521;BME280;4798;41.574;23.734;2023-04-20T03:27:47;94942.41;;;9.64;100.00
9521;BME280;4798;41.574;23.734;2023-04-20T03:30:15;94949.03;;;9.61;100.00
9521;BME280;4798;41.574;23.734;2023-04-20T03:32:44;94944.00;;;9.59;100.00
9521;BME280;4798;41.574;23.734;2023-04-20T03:35:12;94947.94;;;9.67;100.00
9521;BME280;4798;41.574;23.734;2023-04-20T03:37:40;94937.88;;;9.64;100.00
9521;BME280;4798;41.574;23.734;2023-04-20T03:40:09;94937.91;;;9.59;100.00
9521;BME280;4798;41.574;23.734;2023-04-20T03:42:40;94947.19;;;9.56;100.00
9521;BME280;4798;41.574;23.734;2023-04-20T03:45:08;94957.75;;;9.56;100.00
9521;BME280;4798;41.574;23.734;2023-04-20T03:47:37;94951.69;;;9.61;100.00
9521;BME280;4798;41.574;23.734;2023-04-20T03:50:06;94953.81;;;9.54;100.00
9521;BME280;4798;41.574;23.734;2023-04-20T03:52:34;94947.19;;;9.56;100.00
9521;BME280;4798;41.574;23.734;2023-04-20T03:55:03;94947.94;;;9.67;100.00
9521;BME280;4798;41.574;23.734;2023-04-20T03:57:32;94917.31;;;9.56;100.00
9521;BME280;4798;41.574;23.734;2023-04-20T04:00:02;94955.56;;;9.79;100.00
9521;BME280;4798;41.574;23.734;2023-04-20T04:02:31;94950.66;;;9.52;100.00
9521;BME280;4798;41.574;23.734;2023-04-20T04:05:04;94957.97;;;9.70;100.00
9521;BME280;4798;41.574;23.734;2023-04-20T04:07:32;94951.31;;;9.83;100.00
9521;BME280;4798;41.574;23.734;2023-04-20T04:10:01;94960.03;;;9.83;100.00
9521;BME280;4798;41.574;23.734;2023-04-20T04:12:30;94956.59;;;9.83;100.00
9521;BME280;4798;41.574;23.734;2023-04-20T04:14:58;94899.38;;;9.43;100.00
9521;BME280;4798;41.574;23.734;2023-04-20T04:17:28;94957.63;;;9.87;100.00
9521;BME280;4798;41.574;23.734;2023-04-20T04:19:57;94965.25;;;9.98;100.00
9521;BME280;4798;41.574;23.734;2023-04-20T04:22:25;94970.50;;;10.08;100.00
9521;BME280;4798;41.574;23.734;2023-04-20T04:24:56;94974.69;;;10.14;100.00
9521;BME280;4798;41.574;23.734;2023-04-20T04:27:24;94982.16;;;10.02;100.00
9521;BME280;4798;41.574;23.734;2023-04-20T04:29:55;94983.66;;;9.65;100.00
9521;BME280;4798;41.574;23.734;2023-04-20T04:32:24;94977.72;;;9.93;100.00
9521;BME280;4798;41.574;23.734;2023-04-20T04:34:53;94978.44;;;10.08;100.00
9521;BME280;4798;41.574;23.734;2023-04-20T04:37:22;94950.56;;;9.72;100.00
9521;BME280;4798;41.574;23.734;2023-04-20T04:39:50;94979.91;;;10.35;100.00
9521;BME280;4798;41.574;23.734;2023-04-20T04:42:18;94994.25;;;10.24;100.00
9521;BME280;4798;41.574;23.734;2023-04-20T04:44:47;94986.00;;;10.30;100.00
9521;BME280;4798;41.574;23.734;2023-04-20T04:47:17;94985.63;;;10.47;100.00
9521;BME280;4798;41.574;23.734;2023-04-20T04:49:48;94973.78;;;10.68;100.00
9521;BME280;4798;41.574;23.734;2023-04-20T04:52:17;94976.81;;;10.56;100.00
9521;BME280;4798;41.574;23.734;2023-04-20T04:54:46;94975.38;;;10.69;100.00
9521;BME280;4798;41.574;23.734;2023-04-20T04:57:15;94974.47;;;10.83;100.00
9521;BME280;4798;41.574;23.734;2023-04-20T04:59:43;94975.16;;;10.94;100.00
9521;BME280;4798;41.574;23.734;2023-04-20T05:02:11;94977.25;;;10.97;100.00
9521;BME280;4798;41.574;23.734;2023-04-20T05:04:40;94971.97;;;10.97;100.00
9521;BME280;4798;41.574;23.734;2023-04-20T05:07:09;94972.97;;;11.01;100.00
9521;BME280;4798;41.574;23.734;2023-04-20T05:09:39;94972.16;;;11.01;100.00
9521;BME280;4798;41.574;23.734;2023-04-20T05:12:07;94985.19;;;11.26;100.00
9521;BME280;4798;41.574;23.734;2023-04-20T05:14:36;94975.44;;;10.93;100.00
9521;BME280;4798;41.574;23.734;2023-04-20T05:17:04;94978.72;;;11.08;100.00
9521;BME280;4798;41.574;23.734;2023-04-20T05:19:32;94893.38;;;10.54;100.00
9521;BME280;4798;41.574;23.734;2023-04-20T05:22:00;94978.94;;;11.40;100.00
9521;BME280;4798;41.574;23.734;2023-04-20T05:24:29;94973.97;;;11.58;100.00
9521;BME280;4798;41.574;23.734;2023-04-20T05:26:58;94976.00;;;11.42;100.00
9521;BME280;4798;41.574;23.734;2023-04-20T05:29:27;94978.16;;;11.40;100.00
9521;BME280;4798;41.574;23.734;2023-04-20T05:31:55;94978.56;;;11.76;100.00
9521;BME280;4798;41.574;23.734;2023-04-20T05:34:24;94983.94;;;11.71;100.00
9521;BME280;4798;41.574;23.734;2023-04-20T05:36:52;94835.19;;;10.91;100.00
9521;BME280;4798;41.574;23.734;2023-04-20T05:39:22;94993.28;;;11.11;100.00
9521;BME280;4798;41.574;23.734;2023-04-20T05:41:51;94814.63;;;9.63;100.00
9521;BME280;4798;41.574;23.734;2023-04-20T05:44:20;94994.00;;;11.21;100.00
9521;BME280;4798;41.574;23.734;2023-04-20T05:46:48;94994.22;;;11.48;100.00
9521;BME280;4798;41.574;23.734;2023-04-20T05:49:17;94988.69;;;11.74;100.00
9521;BME280;4798;41.574;23.734;2023-04-20T05:51:45;94992.25;;;11.59;100.00
9521;BME280;4798;41.574;23.734;2023-04-20T05:54:13;94968.88;;;11.85;100.00
9521;BME280;4798;41.574;23.734;2023-04-20T05:56:42;94983.06;;;12.18;100.00
9521;BME280;4798;41.574;23.734;2023-04-20T05:59:10;94986.47;;;11.81;100.00
9521;BME280;4798;41.574;23.734;2023-04-20T06:01:40;94981.63;;;12.06;100.00
9521;BME280;4798;41.574;23.734;2023-04-20T06:04:08;94983.81;;;11.99;100.00
9521;BME280;4798;41.574;23.734;2023-04-20T06:06:37;94990.47;;;12.21;100.00
9521;BME280;4798;41.574;23.734;2023-04-20T06:09:05;94976.69;;;12.19;100.00
9521;BME280;4798;41.574;23.734;2023-04-20T06:11:34;94980.25;;;12.28;100.00
9521;BME280;4798;41.574;23.734;2023-04-20T06:14:02;94979.38;;;12.51;100.00
9521;BME280;4798;41.574;23.734;2023-04-20T06:16:30;94976.19;;;12.67;100.00
9521;BME280;4798;41.574;23.734;2023-04-20T06:19:18;94972.72;;;12.86;100.00
9521;BME280;4798;41.574;23.734;2023-04-20T06:21:46;94975.81;;;13.25;98.31
9521;BME280;4798;41.574;23.734;2023-04-20T06:24:14;94976.50;;;12.98;99.08
9521;BME280;4798;41.574;23.734;2023-04-20T06:26:43;94932.31;;;12.19;95.94
9521;BME280;4798;41.574;23.734;2023-04-20T06:29:11;94992.47;;;12.10;100.00
9521;BME280;4798;41.574;23.734;2023-04-20T06:31:39;94978.91;;;12.30;98.91
9521;BME280;4798;41.574;23.734;2023-04-20T06:34:08;94985.91;;;12.58;97.18
9521;BME280;4798;41.574;23.734;2023-04-20T06:36:41;94990.84;;;13.16;95.14
9521;BME280;4798;41.574;23.734;2023-04-20T06:39:09;94909.72;;;12.67;92.23
9521;BME280;4798;41.574;23.734;2023-04-20T06:41:38;94985.22;;;14.26;89.06
9521;BME280;4798;41.574;23.734;2023-04-20T06:44:06;94981.38;;;14.90;81.85
9521;BME280;4798;41.574;23.734;2023-04-20T06:46:35;94962.66;;;15.74;78.51
9521;BME280;4798;41.574;23.734;2023-04-20T06:49:03;94980.44;;;16.61;75.57
9521;BME280;4798;41.574;23.734;2023-04-20T06:51:31;94981.34;;;16.47;78.00
9521;BME280;4798;41.574;23.734;2023-04-20T06:54:01;94987.06;;;16.72;71.33
9521;BME280;4798;41.574;23.734;2023-04-20T06:56:30;94989.72;;;17.06;68.27
9521;BME280;4798;41.574;23.734;2023-04-20T06:59:01;94977.50;;;17.43;68.59
9521;BME280;4798;41.574;23.734;2023-04-20T07:01:30;94972.00;;;17.86;67.12
9521;BME280;4798;41.574;23.734;2023-04-20T07:03:59;94977.38;;;17.31;66.40
9521;BME280;4798;41.574;23.734;2023-04-20T07:06:28;94977.41;;;16.45;70.67
9521;BME280;4798;41.574;23.734;2023-04-20T07:08:56;94982.47;;;16.38;70.04
9521;BME280;4798;41.574;23.734;2023-04-20T07:11:26;94982.63;;;17.01;68.38
9521;BME280;4798;41.574;23.734;2023-04-20T07:13:54;94986.91;;;16.77;67.83
9521;BME280;4798;41.574;23.734;2023-04-20T07:16:22;94985.63;;;16.91;68.93
9521;BME280;4798;41.574;23.734;2023-04-20T07:18:51;94812.03;;;15.44;69.27
9521;BME280;4798;41.574;23.734;2023-04-20T07:21:19;94985.16;;;16.46;68.54
9521;BME280;4798;41.574;23.734;2023-04-20T07:23:47;94983.59;;;16.54;69.51
9521;BME280;4798;41.574;23.734;2023-04-20T07:26:16;94979.94;;;16.50;68.84
9521;BME280;4798;41.574;23.734;2023-04-20T07:28:46;94982.97;;;16.83;66.15
9521;BME280;4798;41.574;23.734;2023-04-20T07:31:14;94991.75;;;16.40;67.33
9521;BME280;4798;41.574;23.734;2023-04-20T07:33:42;94984.53;;;16.75;66.93
9521;BME280;4798;41.574;23.734;2023-04-20T07:36:11;94973.22;;;16.87;67.39
9521;BME280;4798;41.574;23.734;2023-04-20T07:38:39;94978.88;;;16.68;67.83
9521;BME280;4798;41.574;23.734;2023-04-20T07:41:08;94947.03;;;16.49;67.05
9521;BME280;4798;41.574;23.734;2023-04-20T07:43:36;94961.66;;;17.75;64.43
9521;BME280;4798;41.574;23.734;2023-04-20T07:46:07;94954.03;;;18.15;62.28
9521;BME280;4798;41.574;23.734;2023-04-20T07:48:35;94966.06;;;17.17;64.07
9521;BME280;4798;41.574;23.734;2023-04-20T07:51:03;94964.06;;;16.96;66.19
9521;BME280;4798;41.574;23.734;2023-04-20T07:53:32;94967.09;;;17.41;67.00
9521;BME280;4798;41.574;23.734;2023-04-20T07:56:01;94965.09;;;17.21;67.48
9521;BME280;4798;41.574;23.734;2023-04-20T07:58:29;94956.19;;;16.57;65.10
9521;BME280;4798;41.574;23.734;2023-04-20T08:00:58;94959.00;;;17.12;64.76
9521;BME280;4798;41.574;23.734;2023-04-20T08:03:27;94960.09;;;17.20;65.26
9521;BME280;4798;41.574;23.734;2023-04-20T08:05:56;94959.44;;;17.23;65.58
9521;BME280;4798;41.574;23.734;2023-04-20T08:08:24;94954.47;;;17.50;64.80
9521;BME280;4798;41.574;23.734;2023-04-20T08:10:55;94952.22;;;17.06;64.02
9521;BME280;4798;41.574;23.734;2023-04-20T08:13:23;94949.28;;;16.56;66.12
9521;BME280;4798;41.574;23.734;2023-04-20T08:15:53;94951.03;;;16.69;65.55
9521;BME280;4798;41.574;23.734;2023-04-20T08:18:21;94944.25;;;16.55;66.77
9521;BME280;4798;41.574;23.734;2023-04-20T08:20:51;94930.69;;;16.08;68.10
9521;BME280;4798;41.574;23.734;2023-04-20T08:23:19;94931.47;;;16.17;69.58
9521;BME280;4798;41.574;23.734;2023-04-20T08:25:53;94929.72;;;16.04;68.45
9521;BME280;4798;41.574;23.734;2023-04-20T08:28:22;94920.47;;;16.19;68.66
9521;BME280;4798;41.574;23.734;2023-04-20T08:30:55;94922.50;;;16.30;67.27
9521;BME280;4798;41.574;23.734;2023-04-20T08:33:23;94846.34;;;15.68;68.56
9521;BME280;4798;41.574;23.734;2023-04-20T08:35:53;94926.75;;;16.06;68.91
9521;BME280;4798;41.574;23.734;2023-04-20T08:38:22;94919.78;;;15.87;66.33
9521;BME280;4798;41.574;23.734;2023-04-20T08:41:00;94917.59;;;16.07;64.06
9521;BME280;4798;41.574;23.734;2023-04-20T08:43:28;94863.78;;;15.74;64.00
9521;BME280;4798;41.574;23.734;2023-04-20T08:45:58;94914.78;;;16.20;63.98
9521;BME280;4798;41.574;23.734;2023-04-20T08:48:30;94911.03;;;16.30;63.16
9521;BME280;4798;41.574;23.734;2023-04-20T08:51:03;94914.19;;;16.66;61.88
9521;BME280;4798;41.574;23.734;2023-04-20T08:53:32;94773.75;;;16.00;60.02
9521;BME280;4798;41.574;23.734;2023-04-20T08:56:00;94907.09;;;16.87;60.32
9521;BME280;4798;41.574;23.734;2023-04-20T08:58:30;94894.34;;;16.84;59.92
9521;BME280;4798;41.574;23.734;2023-04-20T09:00:59;94899.66;;;16.93;60.72
9521;BME280;4798;41.574;23.734;2023-04-20T09:03:32;94885.16;;;17.02;59.95
9521;BME280;4798;41.574;23.734;2023-04-20T09:06:03;94874.50;;;17.23;58.68
9521;BME280;4798;41.574;23.734;2023-04-20T09:08:36;94862.75;;;17.53;60.63
9521;BME280;4798;41.574;23.734;2023-04-20T09:11:04;94881.59;;;17.65;60.09
9521;BME280;4798;41.574;23.734;2023-04-20T09:13:33;94885.28;;;17.82;60.03
9521;BME280;4798;41.574;23.734;2023-04-20T09:16:12;94884.06;;;18.00;60.11
9521;BME280;4798;41.574;23.734;2023-04-20T09:18:50;94878.81;;;18.45;56.36
9521;BME280;4798;41.574;23.734;2023-04-20T09:21:21;94880.22;;;18.30;58.16
9521;BME280;4798;41.574;23.734;2023-04-20T09:23:56;94868.94;;;18.57;58.05
9521;BME280;4798;41.574;23.734;2023-04-20T09:26:25;94877.00;;;19.35;56.15
9521;BME280;4798;41.574;23.734;2023-04-20T09:28:53;94865.03;;;19.93;53.19
9521;BME280;4798;41.574;23.734;2023-04-20T09:31:22;94876.88;;;20.56;51.68
9521;BME280;4798;41.574;23.734;2023-04-20T09:33:58;94860.63;;;21.70;49.83
9521;BME280;4798;41.574;23.734;2023-04-20T09:36:38;94853.66;;;21.53;46.12
9521;BME280;4798;41.574;23.734;2023-04-20T09:39:09;94865.81;;;20.45;53.13
9521;BME280;4798;41.574;23.734;2023-04-20T09:41:39;94862.13;;;19.37;57.34
9521;BME280;4798;41.574;23.734;2023-04-20T09:44:08;94861.53;;;19.20;57.25
9521;BME280;4798;41.574;23.734;2023-04-20T09:46:38;94843.06;;;19.67;57.03
9521;BME280;4798;41.574;23.734;2023-04-20T09:49:08;94804.69;;;19.42;53.90
9521;BME280;4798;41.574;23.734;2023-04-20T09:51:39;94847.25;;;20.83;51.70
9521;BME280;4798;41.574;23.734;2023-04-20T09:54:11;94835.25;;;22.25;49.29
9521;BME280;4798;41.574;23.734;2023-04-20T09:56:41;94839.53;;;22.64;45.25
9521;BME280;4798;41.574;23.734;2023-04-20T09:59:10;94838.81;;;22.87;42.70
9521;BME280;4798;41.574;23.734;2023-04-20T10:01:39;94834.81;;;22.23;44.55
9521;BME280;4798;41.574;23.734;2023-04-20T10:04:08;94729.94;;;21.68;43.90
9521;BME280;4798;41.574;23.734;2023-04-20T10:06:51;94830.97;;;21.55;46.89
9521;BME280;4798;41.574;23.734;2023-04-20T10:09:21;94823.00;;;20.83;44.50
9521;BME280;4798;41.574;23.734;2023-04-20T10:11:50;94832.66;;;21.00;44.82
9521;BME280;4798;41.574;23.734;2023-04-20T10:14:22;94834.06;;;20.94;46.39
9521;BME280;4798;41.574;23.734;2023-04-20T10:16:59;94831.00;;;20.96;44.81
9521;BME280;4798;41.574;23.734;2023-04-20T10:19:38;94819.09;;;20.81;44.62
9521;BME280;4798;41.574;23.734;2023-04-20T10:22:12;94831.19;;;21.03;43.82
9521;BME280;4798;41.574;23.734;2023-04-20T10:24:41;94827.16;;;20.81;44.39
9521;BME280;4798;41.574;23.734;2023-04-20T10:27:16;94817.63;;;19.76;48.60
9521;BME280;4798;41.574;23.734;2023-04-20T10:29:45;94840.00;;;20.04;46.81
9521;BME280;4798;41.574;23.734;2023-04-20T10:32:23;94844.53;;;19.88;48.60
9521;BME280;4798;41.574;23.734;2023-04-20T10:35:02;94842.75;;;19.68;46.68
9521;BME280;4798;41.574;23.734;2023-04-20T10:37:34;94840.06;;;19.44;51.40
9521;BME280;4798;41.574;23.734;2023-04-20T10:40:03;94843.97;;;19.34;48.36
9521;BME280;4798;41.574;23.734;2023-04-20T10:42:40;94843.88;;;19.55;49.28
9521;BME280;4798;41.574;23.734;2023-04-20T10:45:09;94853.69;;;19.27;48.96
9521;BME280;4798;41.574;23.734;2023-04-20T10:47:37;94841.63;;;19.57;49.32
9521;BME280;4798;41.574;23.734;2023-04-20T10:50:09;94837.78;;;19.82;49.63
9521;BME280;4798;41.574;23.734;2023-04-20T10:52:40;94851.94;;;19.43;51.60
9521;BME280;4798;41.574;23.734;2023-04-20T10:55:17;94844.44;;;19.48;50.04
9521;BME280;4798;41.574;23.734;2023-04-20T10:57:46;94863.25;;;18.91;52.23
9521;BME280;4798;41.574;23.734;2023-04-20T11:00:15;94869.16;;;18.52;53.97
9521;BME280;4798;41.574;23.734;2023-04-20T11:02:48;94865.56;;;18.48;53.69
9521;BME280;4798;41.574;23.734;2023-04-20T11:05:17;94840.13;;;18.54;53.75
9521;BME280;4798;41.574;23.734;2023-04-20T11:07:50;94862.69;;;18.98;52.79
9521;BME280;4798;41.574;23.734;2023-04-20T11:10:19;94864.81;;;19.37;49.44
9521;BME280;4798;41.574;23.734;2023-04-20T11:12:48;94861.81;;;19.63;46.14
9521;BME280;4798;41.574;23.734;2023-04-20T11:15:16;94866.50;;;19.66;46.70
9521;BME280;4798;41.574;23.734;2023-04-20T11:17:45;94857.72;;;19.33;46.81
9521;BME280;4798;41.574;23.734;2023-04-20T11:20:14;94857.88;;;18.79;47.54
9521;BME280;4798;41.574;23.734;2023-04-20T11:22:56;94854.56;;;19.07;47.13
9521;BME280;4798;41.574;23.734;2023-04-20T11:25:25;94850.97;;;19.02;47.82
9521;BME280;4798;41.574;23.734;2023-04-20T11:28:04;94853.25;;;18.47;46.53
9521;BME280;4798;41.574;23.734;2023-04-20T11:30:37;94849.19;;;18.94;46.97
9521;BME280;4798;41.574;23.734;2023-04-20T11:33:07;94843.97;;;19.58;45.74
9521;BME280;4798;41.574;23.734;2023-04-20T11:35:36;94847.44;;;19.59;45.83
9521;BME280;4798;41.574;23.734;2023-04-20T11:38:06;94822.91;;;19.48;46.86
9521;BME280;4798;41.574;23.734;2023-04-20T11:40:35;94801.56;;;19.40;45.02
9521;BME280;4798;41.574;23.734;2023-04-20T11:43:03;94839.06;;;20.24;43.48
9521;BME280;4798;41.574;23.734;2023-04-20T11:45:32;94833.94;;;20.90;43.29
9521;BME280;4798;41.574;23.734;2023-04-20T11:48:03;94836.41;;;21.74;40.46
9521;BME280;4798;41.574;23.734;2023-04-20T11:50:32;94832.03;;;21.85;41.06
9521;BME280;4798;41.574;23.734;2023-04-20T11:53:00;94830.88;;;21.51;41.65
9521;BME280;4798;41.574;23.734;2023-04-20T11:55:30;94824.63;;;20.72;42.01
9521;BME280;4798;41.574;23.734;2023-04-20T11:57:58;94841.72;;;20.92;42.08
9521;BME280;4798;41.574;23.734;2023-04-20T12:00:27;94845.44;;;20.60;45.15
9521;BME280;4798;41.574;23.734;2023-04-20T12:02:56;94843.34;;;20.53;47.19
9521;BME280;4798;41.574;23.734;2023-04-20T12:05:26;94853.63;;;19.59;53.33
9521;BME280;4798;41.574;23.734;2023-04-20T12:07:54;94858.75;;;18.30;51.17
9521;BME280;4798;41.574;23.734;2023-04-20T12:10:23;94778.44;;;18.13;50.21
9521;BME280;4798;41.574;23.734;2023-04-20T12:12:52;94853.03;;;18.85;49.34
9521;BME280;4798;41.574;23.734;2023-04-20T12:15:22;94850.84;;;18.99;50.91
9521;BME280;4798;41.574;23.734;2023-04-20T12:17:50;94858.63;;;19.25;53.03
9521;BME280;4798;41.574;23.734;2023-04-20T12:20:19;94854.97;;;17.90;53.67
9521;BME280;4798;41.574;23.734;2023-04-20T12:22:47;94860.44;;;17.35;54.38
9521;BME280;4798;41.574;23.734;2023-04-20T12:25:15;94864.22;;;16.96;53.84
9521;BME280;4798;41.574;23.734;2023-04-20T12:27:44;94856.44;;;17.49;54.61
9521;BME280;4798;41.574;23.734;2023-04-20T12:30:16;94848.50;;;17.91;54.70
9521;BME280;4798;41.574;23.734;2023-04-20T12:32:45;94841.25;;;17.62;54.30
9521;BME280;4798;41.574;23.734;2023-04-20T12:35:13;94845.22;;;18.06;54.90
9521;BME280;4798;41.574;23.734;2023-04-20T12:37:42;94841.81;;;18.59;53.98
9521;BME280;4798;41.574;23.734;2023-04-20T12:40:10;94829.06;;;19.25;52.81
9521;BME280;4798;41.574;23.734;2023-04-20T12:42:39;94835.50;;;20.08;50.72
9521;BME280;4798;41.574;23.734;2023-04-20T12:45:07;94821.63;;;20.62;49.26
9521;BME280;4798;41.574;23.734;2023-04-20T12:47:38;94825.16;;;20.78;46.39
9521;BME280;4798;41.574;23.734;2023-04-20T12:50:07;94815.50;;;21.71;44.98
9521;BME280;4798;41.574;23.734;2023-04-20T12:52:35;94783.03;;;21.48;45.83
9521;BME280;4798;41.574;23.734;2023-04-20T12:55:04;94798.84;;;22.19;42.85
9521;BME280;4798;41.574;23.734;2023-04-20T12:57:36;94800.72;;;23.18;39.94
9521;BME280;4798;41.574;23.734;2023-04-20T13:00:12;94790.88;;;23.52;44.97
9521;BME280;4798;41.574;23.734;2023-04-20T13:02:42;94792.19;;;23.87;36.36
9521;BME280;4798;41.574;23.734;2023-04-20T13:05:18;94771.59;;;24.09;36.30
9521;BME280;4798;41.574;23.734;2023-04-20T13:07:47;94784.34;;;23.53;35.77
9521;BME280;4798;41.574;23.734;2023-04-20T13:10:16;94769.31;;;23.55;40.38
9521;BME280;4798;41.574;23.734;2023-04-20T13:12:44;94786.97;;;22.81;40.83
9521;BME280;4798;41.574;23.734;2023-04-20T13:15:12;94787.09;;;22.08;44.87
9521;BME280;4798;41.574;23.734;2023-04-20T13:17:46;94779.31;;;22.45;40.58
9521;BME280;4798;41.574;23.734;2023-04-20T13:20:14;94749.56;;;22.41;39.12